createdAt,value
2022-11-15T00:02:54.204Z,100.00
2022-11-15T00:07:40.278Z,100.00
2022-11-15T00:11:56.768Z,100.00
2022-11-15T00:16:19.579Z,100.00
2022-11-15T00:20:41.454Z,100.00
2022-11-15T00:25:04.313Z,100.00
2022-11-15T00:29:25.680Z,100.00
2022-11-15T00:33:48.558Z,100.00
2022-11-15T00:38:09.838Z,100.00
2022-11-15T00:42:31.477Z,100.00
2022-11-15T00:46:52.592Z,100.00
2022-11-15T00:51:15.086Z,100.00
2022-11-15T00:55:36.681Z,100.00
2022-11-15T00:59:58.008Z,100.00
2022-11-15T01:04:19.194Z,100.00
2022-11-15T01:08:42.266Z,100.00
2022-11-15T01:13:03.301Z,100.00
2022-11-15T01:17:24.723Z,100.00
2022-11-15T01:21:45.798Z,100.00
2022-11-15T01:26:11.421Z,100.00
2022-11-15T01:30:32.965Z,100.00
2022-11-15T01:34:54.124Z,100.00
2022-11-15T01:39:16.217Z,100.00
2022-11-15T01:43:38.944Z,100.00
2022-11-15T01:48:00.388Z,100.00
2022-11-15T01:52:25.254Z,100.00
2022-11-15T01:56:49.815Z,100.00
2022-11-15T02:01:13.039Z,100.00
2022-11-15T02:05:35.485Z,100.00
2022-11-15T02:09:58.134Z,100.00
2022-11-15T02:14:21.962Z,100.00
2022-11-15T02:18:51.913Z,100.00
2022-11-15T02:23:39.194Z,100.00
2022-11-15T02:28:22.198Z,100.00
2022-11-15T02:32:51.056Z,100.00
2022-11-15T02:37:19.329Z,100.00
2022-11-15T02:41:51.570Z,100.00
2022-11-15T02:46:20.500Z,100.00
2022-11-15T02:50:44.532Z,100.00
2022-11-15T02:55:06.670Z,100.00
2022-11-15T03:00:04.343Z,100.00
2022-11-15T03:04:38.277Z,100.00
2022-11-15T03:09:07.439Z,100.00
2022-11-15T03:13:33.200Z,100.00
2022-11-15T03:18:01.128Z,100.00
2022-11-15T03:22:26.260Z,100.00
2022-11-15T03:26:50.227Z,100.00
2022-11-15T03:31:28.205Z,100.00
2022-11-15T03:35:50.599Z,100.00
2022-11-15T03:40:12.703Z,100.00
2022-11-15T03:44:43.138Z,100.00
2022-11-15T03:49:10.089Z,100.00
2022-11-15T03:53:32.994Z,100.00
2022-11-15T03:57:58.546Z,100.00
2022-11-15T04:02:21.424Z,100.00
2022-11-15T04:06:42.574Z,100.00
2022-11-15T04:11:03.906Z,100.00
2022-11-15T04:15:26.130Z,100.00
2022-11-15T04:20:06.057Z,100.00
2022-11-15T04:24:27.539Z,100.00
2022-11-15T04:29:03.065Z,100.00
2022-11-15T04:33:24.479Z,100.00
2022-11-15T04:37:49.443Z,100.00
2022-11-15T04:42:11.378Z,100.00
2022-11-15T04:46:32.944Z,100.00
2022-11-15T04:50:54.252Z,100.00
2022-11-15T04:55:17.070Z,100.00
2022-11-15T04:59:38.489Z,100.00
2022-11-15T05:04:17.282Z,100.00
2022-11-15T05:08:38.906Z,100.00
2022-11-15T05:13:01.491Z,100.00
2022-11-15T05:17:22.627Z,100.00
2022-11-15T05:21:44.215Z,100.00
2022-11-15T05:26:09.304Z,100.00
2022-11-15T05:30:32.323Z,100.00
2022-11-15T05:34:53.574Z,100.00
2022-11-15T05:39:14.922Z,100.00
2022-11-15T05:43:40.551Z,100.00
2022-11-15T05:48:08.693Z,100.00
2022-11-15T05:52:33.362Z,100.00
2022-11-15T05:56:56.711Z,100.00
2022-11-15T06:01:18.312Z,100.00
2022-11-15T06:05:41.461Z,100.00
2022-11-15T06:10:03.005Z,100.00
2022-11-15T06:14:24.123Z,100.00
2022-11-15T06:18:45.583Z,100.00
2022-11-15T06:23:08.120Z,100.00
2022-11-15T06:27:29.499Z,100.00
2022-11-15T06:31:50.665Z,100.00
2022-11-15T06:36:17.761Z,100.00
2022-11-15T06:40:41.233Z,100.00
2022-11-15T06:45:02.287Z,100.00
2022-11-15T06:49:24.542Z,100.00
2022-11-15T06:53:46.369Z,100.00
2022-11-15T06:58:09.129Z,100.00
2022-11-15T07:02:30.685Z,100.00
2022-11-15T07:06:52.010Z,100.00
2022-11-15T07:11:13.253Z,100.00
2022-11-15T07:15:35.982Z,100.00
2022-11-15T07:19:57.242Z,100.00
2022-11-15T07:24:18.519Z,100.00
2022-11-15T07:28:39.891Z,100.00
2022-11-15T07:33:02.951Z,100.00
2022-11-15T07:37:24.219Z,100.00
2022-11-15T07:41:45.630Z,100.00
2022-11-15T07:46:10.023Z,100.00
2022-11-15T07:50:32.516Z,100.00
2022-11-15T07:54:53.652Z,100.00
2022-11-15T07:59:14.926Z,100.00
2022-11-15T08:03:36.861Z,100.00
2022-11-15T08:08:00.174Z,100.00
2022-11-15T08:12:21.788Z,100.00
2022-11-15T08:16:43.218Z,100.00
2022-11-15T08:21:04.955Z,100.00
2022-11-15T08:25:29.148Z,100.00
2022-11-15T08:29:53.395Z,100.00
2022-11-15T08:34:18.273Z,100.00
2022-11-15T08:38:39.650Z,100.00
2022-11-15T08:43:03.560Z,100.00
2022-11-15T08:47:25.312Z,100.00
2022-11-15T08:51:47.312Z,100.00
2022-11-15T08:56:09.903Z,100.00
2022-11-15T09:00:32.591Z,100.00
2022-11-15T09:04:53.830Z,100.00
2022-11-15T09:09:15.142Z,100.00
2022-11-15T09:13:37.867Z,100.00
2022-11-15T09:18:01.467Z,100.00
2022-11-15T09:22:22.868Z,100.00
2022-11-15T09:26:44.400Z,100.00
2022-11-15T09:31:09.596Z,100.00
2022-11-15T09:35:33.267Z,100.00
2022-11-15T09:39:54.455Z,100.00
2022-11-15T09:44:40.850Z,100.00
2022-11-15T09:49:03.642Z,100.00
2022-11-15T09:53:16.015Z,100.00
2022-11-15T09:57:23.346Z,100.00
2022-11-15T10:01:38.820Z,100.00
2022-11-15T10:05:44.637Z,100.00
2022-11-15T10:09:54.773Z,100.00
2022-11-15T10:14:02.950Z,100.00
2022-11-15T10:18:19.076Z,100.00
2022-11-15T10:22:28.358Z,100.00
2022-11-15T10:26:32.474Z,100.00
2022-11-15T10:30:37.621Z,100.00
2022-11-15T10:34:40.381Z,100.00
2022-11-15T10:38:54.275Z,100.00
2022-11-15T10:43:08.468Z,100.00
2022-11-15T10:47:30.846Z,100.00
2022-11-15T10:51:44.221Z,100.00
2022-11-15T10:55:50.584Z,100.00
2022-11-15T10:59:58.138Z,100.00
2022-11-15T11:04:02.311Z,100.00
2022-11-15T11:08:07.342Z,100.00
2022-11-15T11:12:13.095Z,100.00
2022-11-15T11:16:40.149Z,100.00
2022-11-15T11:20:48.912Z,100.00
2022-11-15T11:25:05.359Z,100.00
2022-11-15T11:29:22.426Z,100.00
2022-11-15T11:33:33.346Z,100.00
2022-11-15T11:37:41.983Z,100.00
2022-11-15T11:41:55.210Z,100.00
2022-11-15T11:46:14.531Z,100.00
2022-11-15T11:50:21.220Z,100.00
2022-11-15T11:54:32.318Z,100.00
2022-11-15T11:58:38.734Z,100.00
2022-11-15T12:02:44.007Z,100.00
2022-11-15T12:06:52.915Z,100.00
2022-11-15T12:11:03.396Z,100.00
2022-11-15T12:15:14.178Z,100.00
2022-11-15T12:19:16.946Z,100.00
2022-11-15T12:23:25.104Z,100.00
2022-11-15T12:27:35.545Z,100.00
2022-11-15T12:31:41.750Z,100.00
2022-11-15T12:35:46.154Z,99.18
2022-11-15T12:40:40.368Z,99.29
2022-11-15T12:45:00.234Z,98.92
2022-11-15T12:49:05.205Z,98.29
2022-11-15T12:53:29.333Z,97.19
2022-11-15T12:57:40.228Z,94.26
2022-11-15T13:02:02.697Z,92.84
2022-11-15T13:06:12.075Z,90.89
2022-11-15T13:10:33.790Z,92.01
2022-11-15T13:14:46.979Z,88.72
2022-11-15T13:18:56.052Z,88.95
2022-11-15T13:23:09.534Z,87.90
2022-11-15T13:27:20.189Z,85.80
2022-11-15T13:31:36.719Z,85.77
2022-11-15T13:35:43.873Z,84.86
2022-11-15T13:39:46.680Z,84.35
2022-11-15T13:43:52.124Z,83.04
2022-11-15T13:47:59.215Z,80.37
2022-11-15T13:52:04.507Z,78.76
2022-11-15T13:56:08.243Z,77.59
2022-11-15T14:00:39.575Z,76.79
2022-11-15T14:04:51.856Z,73.25
2022-11-15T14:09:27.838Z,75.83
2022-11-15T14:13:32.999Z,74.28
2022-11-15T14:17:38.640Z,75.63
2022-11-15T14:22:17.370Z,75.72
2022-11-15T14:26:32.054Z,76.48
2022-11-15T14:30:35.051Z,77.01
2022-11-15T14:34:37.848Z,78.15
2022-11-15T14:38:43.733Z,78.27
2022-11-15T14:42:47.813Z,78.79
2022-11-15T14:46:50.559Z,80.17
2022-11-15T14:50:53.419Z,80.34
2022-11-15T14:54:58.896Z,82.07
2022-11-15T14:59:02.876Z,80.92
2022-11-15T15:03:06.843Z,80.29
2022-11-15T15:07:09.837Z,79.58
2022-11-15T15:11:17.187Z,79.62
2022-11-15T15:15:26.809Z,81.37
2022-11-15T15:19:29.829Z,80.07
2022-11-15T15:23:33.839Z,80.68
2022-11-15T15:27:38.286Z,81.21
2022-11-15T15:31:47.761Z,81.78
2022-11-15T15:35:55.794Z,82.32
2022-11-15T15:39:59.118Z,81.65
2022-11-15T15:44:03.411Z,81.94
2022-11-15T15:48:06.548Z,80.89
2022-11-15T15:52:10.577Z,81.17
2022-11-15T15:56:13.405Z,80.85
2022-11-15T16:00:19.594Z,80.97
2022-11-15T16:04:22.369Z,81.93
2022-11-15T16:08:27.446Z,81.91
2022-11-15T16:12:30.579Z,81.79
2022-11-15T16:16:35.686Z,82.02
2022-11-15T16:20:40.559Z,82.53
2022-11-15T16:24:43.319Z,83.15
2022-11-15T16:28:46.076Z,82.70
2022-11-15T16:32:51.141Z,82.77
2022-11-15T16:36:55.467Z,83.06
2022-11-15T16:40:58.446Z,83.53
2022-11-15T16:45:01.408Z,83.59
2022-11-15T16:49:05.603Z,83.73
2022-11-15T16:53:08.838Z,83.47
2022-11-15T16:57:12.579Z,83.89
2022-11-15T17:01:20.347Z,84.01
2022-11-15T17:05:27.179Z,83.99
2022-11-15T17:09:30.071Z,84.90
2022-11-15T17:13:33.778Z,84.81
2022-11-15T17:17:36.970Z,84.86
2022-11-15T17:21:41.247Z,84.39
2022-11-15T17:25:44.245Z,85.03
2022-11-15T17:29:46.987Z,84.67
2022-11-15T17:33:49.784Z,85.12
2022-11-15T17:37:53.954Z,84.97
2022-11-15T17:41:56.651Z,84.77
2022-11-15T17:45:59.698Z,84.88
2022-11-15T17:50:02.437Z,84.72
2022-11-15T17:54:06.802Z,84.74
2022-11-15T17:58:09.653Z,84.42
2022-11-15T18:02:13.080Z,85.65
2022-11-15T18:06:17.321Z,85.11
2022-11-15T18:10:21.550Z,85.64
2022-11-15T18:14:26.039Z,85.05
2022-11-15T18:18:28.950Z,85.18
2022-11-15T18:22:31.782Z,85.43
2022-11-15T18:26:35.868Z,86.56
2022-11-15T18:30:41.174Z,86.65
2022-11-15T18:34:44.063Z,85.71
2022-11-15T18:38:47.264Z,85.77
2022-11-15T18:42:54.886Z,85.65
2022-11-15T18:46:57.635Z,85.76
2022-11-15T18:51:05.338Z,85.89
2022-11-15T18:55:09.234Z,86.46
2022-11-15T18:59:13.833Z,86.16
2022-11-15T19:03:20.459Z,86.38
2022-11-15T19:07:26.160Z,86.55
2022-11-15T19:11:31.293Z,86.75
2022-11-15T19:15:35.440Z,86.92
2022-11-15T19:19:38.452Z,87.27
2022-11-15T19:23:43.369Z,87.81
2022-11-15T19:27:46.145Z,89.12
2022-11-15T19:31:50.263Z,89.77
2022-11-15T19:35:52.979Z,90.15
2022-11-15T19:39:55.682Z,90.30
2022-11-15T19:43:58.839Z,91.63
2022-11-15T19:48:03.098Z,93.05
2022-11-15T19:52:06.114Z,95.03
2022-11-15T19:56:12.995Z,96.30
2022-11-15T20:00:16.123Z,97.02
2022-11-15T20:04:20.221Z,97.63
2022-11-15T20:08:23.117Z,97.41
2022-11-15T20:12:25.918Z,98.00
2022-11-15T20:16:29.230Z,98.39
2022-11-15T20:20:33.366Z,98.63
2022-11-15T20:24:36.272Z,98.57
2022-11-15T20:28:40.429Z,98.64
2022-11-15T20:32:43.138Z,99.05
2022-11-15T20:36:47.241Z,99.32
2022-11-15T20:40:51.987Z,99.75
2022-11-15T20:44:57.746Z,100.00
2022-11-15T20:49:00.878Z,100.00
2022-11-15T20:53:05.327Z,100.00
2022-11-15T20:57:08.055Z,100.00
2022-11-15T21:01:15.020Z,100.00
2022-11-15T21:05:17.962Z,100.00
2022-11-15T21:09:39.420Z,100.00
2022-11-15T21:13:42.457Z,100.00
2022-11-15T21:17:45.155Z,100.00
2022-11-15T21:21:47.911Z,100.00
2022-11-15T21:25:52.735Z,100.00
2022-11-15T21:29:55.447Z,100.00
2022-11-15T21:33:58.155Z,100.00
2022-11-15T21:38:01.445Z,100.00
2022-11-15T21:42:05.734Z,100.00
2022-11-15T21:46:08.475Z,100.00
2022-11-15T21:50:11.379Z,100.00
2022-11-15T21:54:14.155Z,100.00
2022-11-15T21:58:18.323Z,100.00
2022-11-15T22:02:21.035Z,100.00
2022-11-15T22:06:24.400Z,100.00
2022-11-15T22:10:27.126Z,100.00
2022-11-15T22:14:31.169Z,100.00
2022-11-15T22:18:34.427Z,100.00
2022-11-15T22:22:37.330Z,100.00
2022-11-15T22:26:40.056Z,100.00
2022-11-15T22:30:45.761Z,100.00
2022-11-15T22:34:48.461Z,100.00
2022-11-15T22:38:51.210Z,100.00
2022-11-15T22:42:53.921Z,100.00
2022-11-15T22:46:57.989Z,100.00
2022-11-15T22:51:01.267Z,100.00
2022-11-15T22:55:04.291Z,100.00
2022-11-15T22:59:07.019Z,100.00
2022-11-15T23:03:11.127Z,100.00
2022-11-15T23:07:13.972Z,100.00
2022-11-15T23:11:34.641Z,100.00
2022-11-15T23:15:51.262Z,100.00
2022-11-15T23:19:55.305Z,100.00
2022-11-15T23:23:58.014Z,100.00
2022-11-15T23:28:02.422Z,100.00
2022-11-15T23:32:23.430Z,100.00
2022-11-15T23:36:28.573Z,100.00
2022-11-15T23:40:31.366Z,100.00
2022-11-15T23:44:34.091Z,100.00
2022-11-15T23:48:36.865Z,100.00
2022-11-15T23:52:40.926Z,100.00
2022-11-15T23:56:43.690Z,100.00
